Elkhart Lake, Wisconsin
Current Conditions -  °F | °C
As of 10:53 PM on Monday 20 Oct 2014 (Local Time) from KSBM Reporting Station
Overcast Overcast  
Wind Chill: 44°   Ceiling: 5500
Heat Index: 48°   Visibility: 10mi
Dew Point: 42°   Wind: 8mph
Humidity: 80%   Direction: 350°N
Pressure: 30.01"   Gusts: NA
Location:  43.83°N, 88.02°W
Report Text: KSBM 210353Z AUTO 35007KT 10SM OVC055 09/06 A3001 RMK AO2 SLP166 T00890056
Loading
Personal Weather Stations






























Interactive Weather Map
Tropical Storm Tracking
New forecast layout! Learn more

10-Day Weather Forecast

Advertisements
Track Severe Weather on mobile